createdAt,value
2022-12-17T00:01:56.013Z,10.33
2022-12-17T00:04:41.931Z,10.13
2022-12-17T00:07:27.617Z,10.47
2022-12-17T00:10:16.547Z,10.93
2022-12-17T00:13:01.867Z,10.30
2022-12-17T00:15:48.918Z,10.83
2022-12-17T00:18:34.113Z,10.53
2022-12-17T00:21:22.496Z,10.97
2022-12-17T00:24:11.236Z,10.73
2022-12-17T00:26:56.494Z,11.10
2022-12-17T00:29:41.821Z,11.50
2022-12-17T00:32:28.956Z,10.60
2022-12-17T00:35:14.303Z,10.23
2022-12-17T00:37:59.454Z,9.53
2022-12-17T00:40:44.826Z,9.47
2022-12-17T00:43:31.972Z,10.10
2022-12-17T00:46:18.109Z,10.37
2022-12-17T00:49:05.018Z,10.23
2022-12-17T00:51:50.292Z,10.30
2022-12-17T00:54:35.887Z,9.43
2022-12-17T00:57:21.062Z,11.27
2022-12-17T01:00:06.425Z,10.07
2022-12-17T01:02:52.297Z,9.90
2022-12-17T01:05:39.263Z,9.70
2022-12-17T01:08:29.063Z,9.67
2022-12-17T01:11:17.923Z,10.23
2022-12-17T01:14:03.622Z,9.73
2022-12-17T01:16:49.357Z,10.53
2022-12-17T01:19:34.671Z,10.73
2022-12-17T01:22:21.408Z,10.17
2022-12-17T01:25:08.070Z,10.87
2022-12-17T01:27:53.683Z,10.67
2022-12-17T01:30:41.516Z,10.90
2022-12-17T01:33:28.615Z,11.00
2022-12-17T01:36:14.471Z,10.67
2022-12-17T01:39:05.040Z,10.30
2022-12-17T01:41:50.209Z,9.93
2022-12-17T01:45:06.339Z,11.77
2022-12-17T01:47:59.316Z,11.93
2022-12-17T01:50:49.155Z,12.23
2022-12-17T01:53:37.110Z,12.90
2022-12-17T01:56:26.245Z,13.53
2022-12-17T01:59:12.446Z,12.20
2022-12-17T02:01:58.868Z,13.70
2022-12-17T02:04:44.724Z,14.07
2022-12-17T02:07:47.939Z,13.53
2022-12-17T02:10:42.398Z,13.97
2022-12-17T02:13:38.218Z,15.60
2022-12-17T02:16:32.531Z,15.20
2022-12-17T02:19:38.447Z,15.37
2022-12-17T02:22:30.207Z,15.03
2022-12-17T02:25:28.113Z,15.57
2022-12-17T02:28:15.311Z,15.37
2022-12-17T02:31:00.829Z,16.23
2022-12-17T02:33:46.706Z,15.67
2022-12-17T02:36:32.360Z,15.30
2022-12-17T02:39:17.554Z,14.47
2022-12-17T02:42:08.154Z,15.10
2022-12-17T02:44:56.909Z,14.67
2022-12-17T02:47:44.585Z,15.87
2022-12-17T02:50:30.970Z,14.87
2022-12-17T02:53:18.826Z,14.23
2022-12-17T02:56:04.570Z,14.30
2022-12-17T02:58:49.928Z,14.37
2022-12-17T03:01:37.079Z,14.37
2022-12-17T03:04:28.691Z,14.87
2022-12-17T03:07:14.210Z,14.53
2022-12-17T03:09:59.717Z,14.53
2022-12-17T03:12:46.926Z,14.33
2022-12-17T03:15:32.943Z,14.23
2022-12-17T03:18:34.144Z,14.03
2022-12-17T03:21:19.751Z,14.07
2022-12-17T03:24:13.781Z,15.23
2022-12-17T03:26:59.217Z,14.13
2022-12-17T03:29:44.737Z,13.27
2022-12-17T03:32:30.076Z,14.53
2022-12-17T03:35:16.667Z,14.27
2022-12-17T03:38:02.159Z,14.23
2022-12-17T03:40:49.751Z,15.27
2022-12-17T03:43:35.588Z,14.40
2022-12-17T03:46:21.121Z,14.63
2022-12-17T03:49:06.294Z,14.37
2022-12-17T03:51:55.084Z,15.17
2022-12-17T03:54:52.243Z,14.43
2022-12-17T03:57:37.865Z,14.40
2022-12-17T04:00:24.288Z,13.53
2022-12-17T04:03:09.802Z,13.80
2022-12-17T04:05:55.081Z,13.63
2022-12-17T04:08:41.866Z,15.13
2022-12-17T04:11:27.340Z,13.70
2022-12-17T04:14:13.086Z,14.13
2022-12-17T04:16:58.445Z,13.27
2022-12-17T04:19:43.672Z,14.00
2022-12-17T04:22:29.670Z,14.63
2022-12-17T04:25:16.540Z,13.40
2022-12-17T04:28:01.845Z,14.23
2022-12-17T04:30:47.331Z,14.43
2022-12-17T04:33:32.796Z,13.87
2022-12-17T04:36:18.553Z,13.30
2022-12-17T04:39:04.424Z,13.60
2022-12-17T04:41:51.356Z,13.67
2022-12-17T04:44:36.773Z,13.60
2022-12-17T04:47:22.149Z,13.80
2022-12-17T04:50:07.348Z,14.30
2022-12-17T04:52:52.776Z,14.23
2022-12-17T04:55:38.294Z,13.93
2022-12-17T04:58:26.021Z,14.93
2022-12-17T05:01:12.076Z,13.70
2022-12-17T05:03:58.065Z,14.93
2022-12-17T05:06:44.359Z,14.10
2022-12-17T05:09:29.697Z,13.80
2022-12-17T05:12:15.128Z,14.60
2022-12-17T05:15:01.752Z,13.87
2022-12-17T05:17:46.984Z,14.80
2022-12-17T05:20:32.219Z,13.97
2022-12-17T05:23:23.503Z,14.33
2022-12-17T05:26:21.352Z,13.97
2022-12-17T05:29:08.032Z,13.67
2022-12-17T05:31:56.850Z,14.70
2022-12-17T05:34:42.251Z,13.43
2022-12-17T05:37:27.926Z,15.17
2022-12-17T05:40:13.231Z,16.07
2022-12-17T05:42:58.730Z,15.53
2022-12-17T05:45:44.181Z,13.93
2022-12-17T05:48:32.965Z,15.10
2022-12-17T05:51:18.287Z,14.90
2022-12-17T05:54:03.926Z,14.67
2022-12-17T05:56:49.112Z,15.00
2022-12-17T05:59:39.565Z,15.67
2022-12-17T06:02:25.136Z,15.53
2022-12-17T06:05:11.595Z,15.97
2022-12-17T06:07:56.871Z,13.70
2022-12-17T06:10:42.085Z,14.80
2022-12-17T06:13:27.564Z,14.23
2022-12-17T06:16:13.482Z,14.53
2022-12-17T06:18:59.304Z,14.63
2022-12-17T06:21:46.073Z,14.30
2022-12-17T06:24:31.651Z,14.07
2022-12-17T06:27:17.247Z,13.90
2022-12-17T06:30:02.582Z,14.10
2022-12-17T06:32:47.969Z,14.63
2022-12-17T06:35:33.405Z,14.47
2022-12-17T06:38:17.974Z,14.50
2022-12-17T06:41:03.416Z,14.43
2022-12-17T06:43:48.983Z,14.23
2022-12-17T06:46:34.348Z,13.83
2022-12-17T06:49:19.840Z,14.50
2022-12-17T06:52:05.129Z,15.00
2022-12-17T06:54:51.916Z,13.80
2022-12-17T06:57:41.160Z,14.57
2022-12-17T07:00:29.650Z,14.47
2022-12-17T07:03:15.181Z,14.23
2022-12-17T07:06:01.093Z,14.93
2022-12-17T07:08:47.107Z,14.90
2022-12-17T07:11:33.769Z,13.87
2022-12-17T07:14:19.282Z,15.20
2022-12-17T07:17:04.618Z,14.67
2022-12-17T07:19:49.924Z,14.13
2022-12-17T07:22:35.646Z,14.37
2022-12-17T07:25:21.029Z,15.13
2022-12-17T07:28:12.846Z,14.97
2022-12-17T07:30:58.300Z,14.67
2022-12-17T07:33:43.535Z,14.23
2022-12-17T07:36:28.720Z,15.17
2022-12-17T07:39:14.016Z,14.03
2022-12-17T07:41:59.306Z,15.53
2022-12-17T07:44:46.014Z,15.37
2022-12-17T07:47:31.385Z,14.57
2022-12-17T07:50:16.734Z,12.67
2022-12-17T07:53:10.461Z,13.40
2022-12-17T07:55:55.739Z,13.43
2022-12-17T07:58:41.097Z,13.03
2022-12-17T08:01:27.714Z,12.63
2022-12-17T08:04:24.620Z,13.47
2022-12-17T08:07:13.910Z,11.67
2022-12-17T08:09:59.520Z,13.27
2022-12-17T08:12:44.764Z,14.17
2022-12-17T08:15:30.032Z,15.13
2022-12-17T08:18:26.172Z,12.63
2022-12-17T08:21:12.520Z,13.53
2022-12-17T08:23:57.909Z,12.20
2022-12-17T08:26:47.777Z,14.37
2022-12-17T08:29:33.861Z,13.70
2022-12-17T08:32:19.028Z,14.50
2022-12-17T08:35:05.518Z,15.53
2022-12-17T08:37:50.778Z,14.20
2022-12-17T08:40:36.225Z,14.60
2022-12-17T08:43:21.592Z,15.03
2022-12-17T08:46:07.820Z,13.97
2022-12-17T08:48:54.248Z,13.63
2022-12-17T08:51:41.802Z,13.43
2022-12-17T08:54:33.004Z,13.13
2022-12-17T08:57:30.746Z,12.00
2022-12-17T09:00:17.127Z,13.63
2022-12-17T09:03:02.601Z,13.47
2022-12-17T09:05:48.331Z,13.83
2022-12-17T09:08:34.917Z,13.43
2022-12-17T09:11:20.069Z,14.80
2022-12-17T09:14:05.437Z,13.57
2022-12-17T09:16:51.155Z,13.73
2022-12-17T09:19:36.562Z,14.43
2022-12-17T09:22:24.088Z,17.00
2022-12-17T09:25:10.954Z,15.33
2022-12-17T09:27:56.416Z,16.03
2022-12-17T09:30:41.775Z,14.17
2022-12-17T09:33:32.876Z,14.13
2022-12-17T09:36:23.754Z,14.90
2022-12-17T09:39:05.694Z,14.53
2022-12-17T09:42:01.591Z,13.03
2022-12-17T09:44:57.263Z,15.17
2022-12-17T09:47:55.409Z,12.43
2022-12-17T09:50:41.132Z,13.30
2022-12-17T09:53:37.748Z,14.90
2022-12-17T09:56:25.425Z,11.20
2022-12-17T09:59:12.346Z,13.33
2022-12-17T10:01:59.510Z,11.40
2022-12-17T10:04:52.635Z,13.43
2022-12-17T10:07:41.105Z,12.73
2022-12-17T10:10:36.905Z,13.50
2022-12-17T10:13:29.304Z,13.57
2022-12-17T10:16:15.913Z,13.20
2022-12-17T10:19:02.334Z,13.10
2022-12-17T10:21:48.657Z,12.63
2022-12-17T10:24:33.763Z,12.60
2022-12-17T10:27:28.217Z,12.73
2022-12-17T10:30:28.107Z,12.60
2022-12-17T10:33:15.952Z,12.50
2022-12-17T10:36:01.674Z,12.57
2022-12-17T10:38:48.972Z,12.80
2022-12-17T10:41:42.997Z,13.10
2022-12-17T10:44:40.042Z,12.20
2022-12-17T10:47:30.957Z,12.80
2022-12-17T10:50:20.388Z,12.67
2022-12-17T10:53:07.467Z,12.43
2022-12-17T10:55:54.621Z,13.40
2022-12-17T10:58:41.924Z,13.27
2022-12-17T11:01:31.187Z,12.90
2022-12-17T11:04:28.612Z,11.43
2022-12-17T11:07:16.241Z,11.70
2022-12-17T11:10:09.512Z,12.87
2022-12-17T11:12:59.668Z,13.13
2022-12-17T11:15:51.440Z,13.50
2022-12-17T11:18:40.841Z,12.57
2022-12-17T11:21:31.503Z,12.33
2022-12-17T11:24:22.741Z,12.70
2022-12-17T11:27:12.520Z,13.33
2022-12-17T11:29:57.904Z,12.83
2022-12-17T11:32:59.663Z,13.17
2022-12-17T11:35:46.930Z,14.00
2022-12-17T11:38:48.870Z,13.87
2022-12-17T11:41:44.143Z,12.93
2022-12-17T11:44:43.140Z,13.33
2022-12-17T11:47:38.892Z,14.50
2022-12-17T11:50:34.801Z,12.77
2022-12-17T11:53:28.136Z,13.47
2022-12-17T11:56:22.430Z,12.27
2022-12-17T11:59:13.756Z,13.60
2022-12-17T12:02:08.452Z,14.63
2022-12-17T12:05:10.313Z,14.47
2022-12-17T12:08:04.409Z,14.27
2022-12-17T12:10:56.878Z,13.33
2022-12-17T12:13:51.095Z,14.53
2022-12-17T12:16:44.864Z,20.53
2022-12-17T12:19:40.952Z,18.13
2022-12-17T12:22:35.250Z,20.67
2022-12-17T12:25:37.549Z,14.27
2022-12-17T12:28:32.318Z,15.43
2022-12-17T12:31:27.808Z,15.70
2022-12-17T12:34:18.814Z,15.80
2022-12-17T12:37:06.579Z,15.37
2022-12-17T12:39:56.923Z,15.27
2022-12-17T12:42:52.109Z,14.40
2022-12-17T12:45:59.268Z,14.57
2022-12-17T12:48:57.808Z,14.30
2022-12-17T12:51:47.998Z,15.63
2022-12-17T12:54:44.232Z,14.80
2022-12-17T12:57:51.153Z,14.30
2022-12-17T13:00:42.693Z,13.90
2022-12-17T13:03:51.728Z,14.97
2022-12-17T13:06:46.345Z,14.43
2022-12-17T13:09:47.700Z,16.87
2022-12-17T13:12:24.258Z,16.37
2022-12-17T13:15:05.148Z,16.13
2022-12-17T13:17:37.623Z,16.33
2022-12-17T13:20:26.263Z,15.30
2022-12-17T13:23:26.698Z,17.07
2022-12-17T13:26:14.745Z,15.30
2022-12-17T13:28:44.224Z,16.10
2022-12-17T13:31:19.000Z,16.90
2022-12-17T13:33:53.649Z,16.33
2022-12-17T13:36:29.065Z,16.03
2022-12-17T13:39:04.710Z,18.73
2022-12-17T13:41:34.934Z,15.93
2022-12-17T13:44:05.757Z,17.70
2022-12-17T13:46:47.250Z,17.70
2022-12-17T13:49:20.092Z,16.30
2022-12-17T13:51:48.072Z,16.07
2022-12-17T13:54:19.330Z,17.40
2022-12-17T13:56:47.609Z,20.17
2022-12-17T13:59:21.097Z,17.40
2022-12-17T14:01:51.181Z,17.70
2022-12-17T14:04:24.754Z,17.40
2022-12-17T14:06:53.933Z,17.90
2022-12-17T14:09:28.269Z,19.03
2022-12-17T14:12:18.850Z,17.23
2022-12-17T14:14:49.114Z,17.50
2022-12-17T14:17:20.118Z,17.97
2022-12-17T14:19:49.803Z,17.17
2022-12-17T14:22:21.868Z,17.83
2022-12-17T14:24:51.423Z,17.27
2022-12-17T14:27:24.719Z,17.03
2022-12-17T14:29:52.918Z,15.43
2022-12-17T14:32:26.331Z,15.33
2022-12-17T14:35:00.609Z,15.70
2022-12-17T14:37:30.134Z,15.77
2022-12-17T14:40:04.990Z,16.67
2022-12-17T14:42:37.612Z,15.43
2022-12-17T14:45:09.056Z,16.53
2022-12-17T14:47:45.724Z,18.43
2022-12-17T14:50:30.708Z,16.20
2022-12-17T14:53:00.261Z,16.80
2022-12-17T14:55:36.707Z,16.23
2022-12-17T14:58:18.372Z,17.53
2022-12-17T15:00:49.489Z,15.90
2022-12-17T15:03:29.195Z,16.33
2022-12-17T15:06:02.416Z,14.87
2022-12-17T15:08:36.352Z,15.53
2022-12-17T15:11:06.239Z,15.93
2022-12-17T15:13:34.393Z,15.53
2022-12-17T15:16:02.357Z,15.13
2022-12-17T15:18:30.230Z,15.13
2022-12-17T15:20:58.150Z,17.80
2022-12-17T15:23:26.449Z,16.13
2022-12-17T15:25:55.325Z,15.23
2022-12-17T15:28:24.667Z,15.17
2022-12-17T15:30:52.651Z,16.23
2022-12-17T15:33:20.461Z,16.50
2022-12-17T15:35:49.061Z,14.97
2022-12-17T15:38:18.014Z,14.57
2022-12-17T15:40:45.924Z,16.00
2022-12-17T15:43:13.358Z,16.97
2022-12-17T15:45:45.944Z,17.47
2022-12-17T15:48:18.967Z,17.10
2022-12-17T15:50:47.285Z,17.07
2022-12-17T15:53:16.028Z,16.80
2022-12-17T15:55:44.998Z,17.53
2022-12-17T15:58:13.918Z,17.83
2022-12-17T16:00:43.096Z,17.97
2022-12-17T16:03:11.133Z,16.57
2022-12-17T16:05:39.070Z,16.00
2022-12-17T16:08:07.713Z,18.00
2022-12-17T16:10:35.448Z,19.07
2022-12-17T16:13:03.471Z,18.77
2022-12-17T16:15:31.517Z,18.23
2022-12-17T16:18:00.982Z,18.33
2022-12-17T16:20:28.810Z,18.63
2022-12-17T16:22:56.716Z,17.43
2022-12-17T16:25:24.618Z,18.60
2022-12-17T16:27:52.445Z,18.60
2022-12-17T16:30:20.912Z,16.57
2022-12-17T16:32:48.801Z,18.33
2022-12-17T16:35:18.092Z,19.03
2022-12-17T16:37:46.133Z,18.90
2022-12-17T16:40:14.161Z,17.57
2022-12-17T16:42:42.012Z,18.93
2022-12-17T16:45:10.981Z,19.30
2022-12-17T16:47:39.627Z,19.67
2022-12-17T16:50:07.664Z,18.67
2022-12-17T16:52:36.821Z,18.53
2022-12-17T16:55:04.997Z,20.23
2022-12-17T16:57:32.885Z,18.33
2022-12-17T17:00:00.856Z,18.50
2022-12-17T17:02:28.865Z,16.23
2022-12-17T17:04:56.957Z,17.27
2022-12-17T17:07:26.725Z,15.03
2022-12-17T17:09:56.142Z,16.23
2022-12-17T17:12:25.346Z,18.30
2022-12-17T17:14:53.235Z,18.27
2022-12-17T17:17:54.356Z,18.03
2022-12-17T17:20:12.047Z,18.43
2022-12-17T17:22:39.956Z,17.60
2022-12-17T17:25:09.789Z,15.97
2022-12-17T17:27:37.652Z,18.60
2022-12-17T17:30:06.479Z,18.50
2022-12-17T17:32:34.367Z,18.03
2022-12-17T17:35:02.342Z,18.13
2022-12-17T17:37:31.360Z,18.10
2022-12-17T17:39:59.222Z,18.73
2022-12-17T17:42:28.428Z,15.73
2022-12-17T17:44:56.282Z,17.00
2022-12-17T17:47:24.193Z,16.33
2022-12-17T17:49:52.055Z,17.97
2022-12-17T17:52:19.845Z,17.33
2022-12-17T17:54:48.702Z,17.20
2022-12-17T17:57:16.707Z,15.03
2022-12-17T17:59:45.996Z,17.60
2022-12-17T18:02:14.035Z,15.03
2022-12-17T18:04:47.360Z,15.67
2022-12-17T18:07:26.473Z,15.93
2022-12-17T18:09:55.508Z,17.57
2022-12-17T18:12:42.667Z,17.73
2022-12-17T18:15:15.407Z,13.93
2022-12-17T18:17:45.974Z,13.20
2022-12-17T18:20:14.684Z,12.17
2022-12-17T18:22:42.616Z,13.10
2022-12-17T18:25:12.258Z,14.77
2022-12-17T18:27:49.898Z,13.33
2022-12-17T18:30:19.840Z,12.33
2022-12-17T18:32:50.508Z,12.37
2022-12-17T18:35:18.597Z,15.00
2022-12-17T18:37:46.834Z,13.33
2022-12-17T18:40:14.787Z,14.00
2022-12-17T18:43:00.166Z,14.40
2022-12-17T18:45:29.371Z,16.27
2022-12-17T18:47:57.277Z,13.03
2022-12-17T18:50:25.305Z,13.83
2022-12-17T18:52:53.836Z,14.00
2022-12-17T18:55:21.793Z,14.70
2022-12-17T18:57:49.733Z,15.40
2022-12-17T19:00:18.610Z,16.67
2022-12-17T19:02:48.505Z,14.80
2022-12-17T19:05:17.230Z,14.93
2022-12-17T19:07:45.136Z,16.07
2022-12-17T19:10:13.055Z,16.03
2022-12-17T19:12:40.877Z,15.13
2022-12-17T19:15:10.144Z,14.67
2022-12-17T19:17:38.847Z,15.30
2022-12-17T19:20:09.984Z,13.70
2022-12-17T19:22:37.857Z,14.63
2022-12-17T19:25:06.390Z,12.77
2022-12-17T19:27:37.115Z,13.53
2022-12-17T19:30:06.103Z,13.60
2022-12-17T19:32:34.068Z,13.17
2022-12-17T19:35:02.115Z,14.30
2022-12-17T19:37:31.344Z,13.93
2022-12-17T19:39:59.420Z,14.23
2022-12-17T19:42:33.426Z,14.07
2022-12-17T19:45:03.540Z,13.60
2022-12-17T19:47:31.455Z,14.13
2022-12-17T19:49:59.263Z,13.03
2022-12-17T19:52:27.089Z,13.10
2022-12-17T19:54:56.295Z,11.47
2022-12-17T19:57:24.208Z,14.47
2022-12-17T19:59:52.201Z,12.83
2022-12-17T20:02:24.936Z,15.30
2022-12-17T20:04:59.321Z,14.43
2022-12-17T20:07:27.495Z,13.57
2022-12-17T20:09:57.064Z,14.63
2022-12-17T20:12:25.117Z,13.93
2022-12-17T20:14:53.129Z,14.40
2022-12-17T20:17:21.281Z,12.43
2022-12-17T20:19:49.326Z,12.17
2022-12-17T20:22:17.233Z,12.20
2022-12-17T20:24:45.135Z,14.07
2022-12-17T20:27:14.288Z,14.93
2022-12-17T20:30:02.689Z,10.40
2022-12-17T20:32:30.693Z,14.10
2022-12-17T20:34:58.780Z,14.30
2022-12-17T20:37:26.753Z,15.13
2022-12-17T20:39:55.157Z,16.33
2022-12-17T20:42:24.335Z,14.37
2022-12-17T20:44:53.645Z,15.43
2022-12-17T20:47:21.752Z,15.33
2022-12-17T20:49:49.656Z,14.53
2022-12-17T20:52:17.644Z,17.20
2022-12-17T20:54:45.522Z,15.93
2022-12-17T20:57:13.389Z,16.70
2022-12-17T20:59:42.772Z,16.17
2022-12-17T21:02:11.546Z,15.03
2022-12-17T21:04:39.592Z,16.20
2022-12-17T21:07:07.426Z,16.43
2022-12-17T21:09:35.246Z,15.33
2022-12-17T21:12:03.145Z,15.93
2022-12-17T21:14:35.559Z,14.93
2022-12-17T21:17:05.534Z,15.03
2022-12-17T21:19:33.536Z,16.20
2022-12-17T21:22:01.928Z,15.60
2022-12-17T21:24:29.817Z,14.93
2022-12-17T21:26:57.952Z,14.37
2022-12-17T21:29:26.133Z,15.60
2022-12-17T21:31:54.035Z,15.50
2022-12-17T21:34:25.229Z,14.40
2022-12-17T21:36:53.269Z,13.97
2022-12-17T21:39:21.966Z,12.87
2022-12-17T21:42:03.880Z,14.83
2022-12-17T21:44:32.075Z,15.37
2022-12-17T21:46:59.988Z,14.63
2022-12-17T21:49:29.246Z,15.57
2022-12-17T21:51:59.176Z,15.43
2022-12-17T21:54:27.319Z,14.43
2022-12-17T21:56:55.160Z,14.80
2022-12-17T21:59:23.351Z,14.87
2022-12-17T22:01:52.103Z,15.17
2022-12-17T22:04:20.162Z,15.80
2022-12-17T22:06:55.731Z,16.10
2022-12-17T22:09:45.560Z,15.70
2022-12-17T22:12:34.000Z,16.07
2022-12-17T22:15:01.965Z,17.10
2022-12-17T22:17:30.270Z,17.40
2022-12-17T22:19:58.048Z,15.80
2022-12-17T22:22:27.241Z,15.50
2022-12-17T22:24:55.308Z,15.87
2022-12-17T22:27:23.984Z,16.67
2022-12-17T22:30:09.399Z,16.23
2022-12-17T22:32:54.754Z,17.10
2022-12-17T22:36:10.198Z,15.27
2022-12-17T22:42:50.407Z,13.80
2022-12-17T22:44:34.012Z,14.53
2022-12-17T22:44:44.522Z,12.40
2022-12-17T22:46:41.602Z,13.83
2022-12-17T22:49:10.041Z,13.97
2022-12-17T22:51:38.571Z,13.03
2022-12-17T22:54:13.657Z,14.10
2022-12-17T22:57:27.997Z,13.97
2022-12-17T22:59:32.185Z,14.97
2022-12-17T23:02:00.248Z,13.50
2022-12-17T23:04:28.147Z,14.97
2022-12-17T23:06:58.166Z,13.93
2022-12-17T23:09:27.865Z,14.27
2022-12-17T23:11:55.739Z,13.50
2022-12-17T23:14:23.894Z,14.53
2022-12-17T23:16:51.681Z,14.13
2022-12-17T23:19:19.553Z,15.80
2022-12-17T23:21:47.362Z,14.73
2022-12-17T23:24:15.128Z,14.20
2022-12-17T23:26:44.322Z,14.47
2022-12-17T23:29:19.401Z,15.67
2022-12-17T23:31:48.191Z,15.73
2022-12-17T23:34:16.363Z,14.67
2022-12-17T23:36:44.187Z,13.83
2022-12-17T23:39:12.123Z,12.93
2022-12-17T23:41:39.941Z,14.70
2022-12-17T23:44:09.037Z,14.30
2022-12-17T23:46:36.857Z,14.07
2022-12-17T23:49:05.984Z,14.20
2022-12-17T23:51:34.575Z,13.77
2022-12-17T23:54:02.496Z,13.07
2022-12-17T23:56:30.480Z,14.20
2022-12-17T23:59:00.363Z,13.37
